Time;durP1;ratioP1;P1;durP2;ratioP2;P2;SDS_P1;SDS_P2;PMS_P1;PMS_P2;Temp;Humidity;BMP_temperature;BMP_pressure;BME280_temperature;BME280_humidity;BME280_pressure;Samples;Min_cycle;Max_cycle;Signal;HPM_P1;HPM_P2
2021/10/11 00:01:42;;;;;;;;;;;;;;;6.14;80.97;101988.10;2000495;72;20133;-61
2021/10/11 00:04:10;;;;;;;;;;;;;;;6.11;81.12;101984.17;2000492;72;20114;-61
2021/10/11 00:06:38;;;;;;;;;;;;;;;6.04;81.37;101977.20;2000573;72;20114;-61
2021/10/11 00:09:06;;;;;;;;;;;;;;;5.96;81.78;101975.03;2000564;72;20402;-61
2021/10/11 00:11:36;;;;;;;;;;;;;;;5.93;82.10;101979.77;1977660;72;20150;-58
2021/10/11 00:14:03;;;;;;;;;;;;;;;5.91;82.24;101978.05;1985087;72;20156;-58
2021/10/11 00:16:31;;;;;;;;;;;;;;;5.86;82.25;101981.95;1984997;72;20111;-59
2021/10/11 00:18:59;;;;;;;;;;;;;;;5.82;82.52;101972.81;1985048;72;20148;-58
2021/10/11 00:21:27;;;;;;;;;;;;;;;5.79;82.82;101971.05;1985115;72;20114;-58
2021/10/11 00:23:55;;;;;;;;;;;;;;;5.77;82.81;101975.00;1985101;72;20376;-58
2021/10/11 00:26:22;;;;;;;;;;;;;;;5.76;83.02;101969.77;1985014;72;20106;-58
2021/10/11 00:28:50;;;;;;;;;;;;;;;5.72;83.20;101972.81;1985049;72;20192;-58
2021/10/11 00:31:18;;;;;;;;;;;;;;;5.71;83.18;101976.28;1985008;72;20176;-58
2021/10/11 00:33:46;;;;;;;;;;;;;;;5.74;83.03;101977.59;1985118;72;20102;-58
2021/10/11 00:36:14;;;;;;;;;;;;;;;5.75;83.22;101981.94;1985109;72;20106;-57
2021/10/11 00:38:42;;;;;;;;;;;;;;;5.72;83.41;101980.65;1985189;72;20144;-58
2021/10/11 00:41:10;;;;;;;;;;;;;;;5.71;83.67;101972.36;1985102;72;20191;-58
2021/10/11 00:43:39;;;;;;;;;;;;;;;5.71;83.71;101976.72;1985014;72;20110;-58
2021/10/11 00:46:07;;;;;;;;;;;;;;;5.69;83.72;101975.41;1985072;72;20395;-58
2021/10/11 00:48:35;;;;;;;;;;;;;;;5.68;83.89;101967.16;1985075;72;20365;-58
2021/10/11 00:51:09;;;;;;;;;;;;;;;5.66;84.11;101974.09;1985059;72;20094;-58
2021/10/11 00:53:34;;;;;;;;;;;;;;;5.64;84.04;101970.61;1984621;72;20114;-58
2021/10/11 00:56:02;;;;;;;;;;;;;;;5.65;83.80;101980.20;1984952;72;20110;-58
2021/10/11 00:58:29;;;;;;;;;;;;;;;5.65;83.46;101977.59;1985087;72;20173;-58
2021/10/11 01:00:57;;;;;;;;;;;;;;;5.66;83.15;101980.62;1985179;72;20110;-58
2021/10/11 01:03:25;;;;;;;;;;;;;;;5.65;82.94;101976.28;1985157;72;20152;-58
2021/10/11 01:05:53;;;;;;;;;;;;;;;5.65;82.81;101973.67;1984981;72;20110;-58
2021/10/11 01:08:21;;;;;;;;;;;;;;;5.64;82.65;101960.16;1985076;72;20102;-58
2021/10/11 01:10:49;;;;;;;;;;;;;;;5.63;82.58;101963.66;1987299;72;20114;-58
2021/10/11 01:13:17;;;;;;;;;;;;;;;5.59;82.70;101966.70;1991512;72;20114;-58
2021/10/11 01:15:45;;;;;;;;;;;;;;;5.60;82.50;101971.03;1991577;72;20114;-58
2021/10/11 01:18:13;;;;;;;;;;;;;;;5.58;82.48;101962.77;1991584;72;20114;-57
2021/10/11 01:20:40;;;;;;;;;;;;;;;5.57;82.45;101968.44;1991539;72;20157;-58
2021/10/11 01:23:08;;;;;;;;;;;;;;;5.56;82.46;101969.73;1991412;72;20144;-58
2021/10/11 01:25:36;;;;;;;;;;;;;;;5.52;82.67;101962.33;1991541;72;20110;-58
2021/10/11 01:28:04;;;;;;;;;;;;;;;5.46;82.74;101949.68;1991650;72;20114;-58
2021/10/11 01:30:32;;;;;;;;;;;;;;;5.41;83.11;101947.08;1991527;71;20110;-58
2021/10/11 01:33:01;;;;;;;;;;;;;;;5.38;83.49;101949.67;1991515;72;20157;-58
2021/10/11 01:35:29;;;;;;;;;;;;;;;5.34;83.41;101951.41;1991582;72;20383;-58
2021/10/11 01:37:57;;;;;;;;;;;;;;;5.31;83.47;101939.67;1991463;72;20144;-58
2021/10/11 01:40:24;;;;;;;;;;;;;;;5.29;83.39;101936.16;1991542;72;20098;-58
2021/10/11 01:42:52;;;;;;;;;;;;;;;5.26;83.26;101932.25;1991548;72;20110;-57
2021/10/11 01:45:21;;;;;;;;;;;;;;;5.23;83.16;101925.70;1991568;72;20183;-58
2021/10/11 01:47:48;;;;;;;;;;;;;;;5.22;83.07;101920.92;1991574;72;20101;-58
2021/10/11 01:50:16;;;;;;;;;;;;;;;5.20;82.96;101929.60;1991464;72;20110;-57
2021/10/11 01:52:44;;;;;;;;;;;;;;;5.18;82.91;101930.04;1991512;72;20113;-58
2021/10/11 01:55:12;;;;;;;;;;;;;;;5.19;82.84;101931.80;1991560;72;20113;-58
2021/10/11 01:57:40;;;;;;;;;;;;;;;5.19;83.22;101931.35;1991518;72;20380;-58
2021/10/11 02:00:08;;;;;;;;;;;;;;;5.22;83.09;101934.42;1991560;72;20110;-58
2021/10/11 02:02:37;;;;;;;;;;;;;;;5.24;82.96;101927.46;1991537;72;20414;-58
2021/10/11 02:05:06;;;;;;;;;;;;;;;5.25;82.90;101930.49;1991551;72;20219;-58
2021/10/11 02:07:34;;;;;;;;;;;;;;;5.26;82.88;101933.56;1991501;72;20202;-58
2021/10/11 02:10:01;;;;;;;;;;;;;;;5.28;83.07;101927.90;1991540;72;20114;-58
2021/10/11 02:12:29;;;;;;;;;;;;;;;5.27;83.30;101923.97;1991675;72;20144;-58
2021/10/11 02:14:57;;;;;;;;;;;;;;;5.30;83.28;101921.37;1991573;72;20110;-58
2021/10/11 02:17:25;;;;;;;;;;;;;;;5.29;83.29;101919.17;1991425;72;20144;-57
2021/10/11 02:19:54;;;;;;;;;;;;;;;5.32;83.16;101929.64;1991610;72;20094;-57
2021/10/11 02:22:22;;;;;;;;;;;;;;;5.33;83.12;101932.70;1991537;72;20114;-57
2021/10/11 02:24:50;;;;;;;;;;;;;;;5.36;82.98;101927.91;1991529;72;20153;-57
2021/10/11 02:27:18;;;;;;;;;;;;;;;5.41;82.94;101925.73;1991451;72;20114;-58
2021/10/11 02:29:46;;;;;;;;;;;;;;;5.47;82.86;101916.17;1991487;72;20137;-58
2021/10/11 02:32:15;;;;;;;;;;;;;;;5.51;82.76;101913.98;1991435;72;20098;-58
2021/10/11 02:34:43;;;;;;;;;;;;;;;5.55;82.72;101911.81;1991521;72;20106;-58
2021/10/11 02:37:11;;;;;;;;;;;;;;;5.59;82.67;101910.97;1991549;72;20183;-58
2021/10/11 02:39:39;;;;;;;;;;;;;;;5.64;82.57;101900.05;1991527;72;20110;-57
2021/10/11 02:42:06;;;;;;;;;;;;;;;5.67;82.47;101904.42;1991493;72;20114;-58
2021/10/11 02:44:36;;;;;;;;;;;;;;;5.69;82.41;101911.38;1991521;72;20364;-60
2021/10/11 02:47:04;;;;;;;;;;;;;;;5.66;82.55;101910.06;1991477;72;20106;-60
2021/10/11 02:49:33;;;;;;;;;;;;;;;5.63;82.53;101907.47;1991813;72;20424;-59
2021/10/11 02:52:01;;;;;;;;;;;;;;;5.58;82.51;101898.31;1991838;72;20179;-59
2021/10/11 02:54:29;;;;;;;;;;;;;;;5.56;82.54;101896.58;1991748;72;20118;-59
2021/10/11 02:56:57;;;;;;;;;;;;;;;5.56;82.70;101901.36;1991737;72;20114;-60
2021/10/11 02:59:25;;;;;;;;;;;;;;;5.56;82.81;101892.66;1991694;72;20289;-60
2021/10/11 03:01:53;;;;;;;;;;;;;;;5.57;82.82;101887.45;1991733;72;20140;-60
2021/10/11 03:04:21;;;;;;;;;;;;;;;5.61;82.76;101889.62;1991787;72;20256;-60
2021/10/11 03:06:48;;;;;;;;;;;;;;;5.63;82.67;101880.04;1991784;72;20143;-60
2021/10/11 03:09:16;;;;;;;;;;;;;;;5.69;82.53;101873.94;1991755;72;20140;-60
2021/10/11 03:11:44;;;;;;;;;;;;;;;5.73;82.45;101881.76;1991559;72;20118;-60
2021/10/11 03:14:12;;;;;;;;;;;;;;;5.78;82.35;101889.16;1991847;72;20148;-60
2021/10/11 03:16:40;;;;;;;;;;;;;;;5.82;82.29;101885.25;1991791;72;20114;-60
2021/10/11 03:19:07;;;;;;;;;;;;;;;5.80;82.30;101896.56;1991765;72;20114;-61
2021/10/11 03:21:35;;;;;;;;;;;;;;;5.79;82.64;101898.77;1991757;72;20118;-60
2021/10/11 03:24:03;;;;;;;;;;;;;;;5.79;82.75;101888.72;1991734;72;20110;-62
2021/10/11 03:26:31;;;;;;;;;;;;;;;5.80;82.90;101885.25;1991620;72;20183;-61
2021/10/11 03:28:59;;;;;;;;;;;;;;;5.84;82.85;101878.28;1991719;72;20144;-60
2021/10/11 03:31:27;;;;;;;;;;;;;;;5.84;82.87;101869.98;1991665;72;20110;-61
2021/10/11 03:33:55;;;;;;;;;;;;;;;5.86;82.88;101866.07;1991702;72;20137;-61
2021/10/11 03:36:22;;;;;;;;;;;;;;;5.87;82.91;101863.91;1991862;72;20106;-60
2021/10/11 03:38:50;;;;;;;;;;;;;;;5.88;82.86;101863.02;1991615;72;20101;-61
2021/10/11 03:41:18;;;;;;;;;;;;;;;5.91;82.78;101863.88;1991844;72;20110;-60
2021/10/11 03:43:46;;;;;;;;;;;;;;;5.94;82.69;101856.49;1991795;72;20113;-60
2021/10/11 03:46:14;;;;;;;;;;;;;;;5.95;82.69;101859.11;1991871;72;20106;-60
2021/10/11 03:48:42;;;;;;;;;;;;;;;5.96;82.91;101852.16;1991733;72;20153;-60
2021/10/11 03:51:09;;;;;;;;;;;;;;;5.97;83.04;101848.66;1991652;72;20173;-61
2021/10/11 03:53:38;;;;;;;;;;;;;;;6.00;83.18;101849.97;1991694;72;20509;-60
2021/10/11 03:56:06;;;;;;;;;;;;;;;6.04;83.16;101850.83;1991779;72;20110;-60
2021/10/11 03:58:33;;;;;;;;;;;;;;;6.09;83.02;101849.94;1991770;72;20140;-59
2021/10/11 04:01:01;;;;;;;;;;;;;;;6.16;82.86;101852.08;1991674;72;20162;-60
2021/10/11 04:03:29;;;;;;;;;;;;;;;6.23;82.72;101852.95;1991597;72;20106;-59
2021/10/11 04:05:57;;;;;;;;;;;;;;;6.30;82.59;101852.05;1991507;72;20509;-60
2021/10/11 04:08:33;;;;;;;;;;;;;;;6.35;82.50;101854.22;1991578;72;20110;-61
2021/10/11 04:13:26;;;;;;;;;;;;;;;6.40;82.70;101852.47;1986682;72;20123;-61
2021/10/11 04:15:54;;;;;;;;;;;;;;;6.40;82.92;101850.27;1984996;72;20156;-60
2021/10/11 04:18:22;;;;;;;;;;;;;;;6.42;82.94;101852.02;1984982;72;20145;-62
2021/10/11 04:20:50;;;;;;;;;;;;;;;6.43;82.91;101846.34;1985211;72;20114;-61
2021/10/11 04:23:18;;;;;;;;;;;;;;;6.45;83.05;101844.14;1985088;72;20122;-61
2021/10/11 04:25:46;;;;;;;;;;;;;;;6.50;83.06;101838.45;1985080;72;20118;-61
2021/10/11 04:28:15;;;;;;;;;;;;;;;6.54;83.00;101833.63;1985082;72;20122;-61
2021/10/11 04:30:43;;;;;;;;;;;;;;;6.63;82.92;101839.70;1985101;72;20145;-61
2021/10/11 04:33:11;;;;;;;;;;;;;;;6.69;82.79;101837.05;1985078;72;20106;-62
2021/10/11 04:35:39;;;;;;;;;;;;;;;6.75;82.72;101828.73;1985097;72;20137;-61
2021/10/11 04:38:07;;;;;;;;;;;;;;;6.81;82.56;101829.14;1985083;72;20122;-61
2021/10/11 04:40:35;;;;;;;;;;;;;;;6.87;82.41;101826.47;1985073;71;20098;-60
2021/10/11 04:43:03;;;;;;;;;;;;;;;6.92;82.64;101824.70;1985073;72;20114;-61
2021/10/11 04:45:32;;;;;;;;;;;;;;;7.00;82.52;101835.56;1985018;72;20110;-61
2021/10/11 04:48:05;;;;;;;;;;;;;;;7.08;82.37;101840.30;1985058;72;20392;-60
2021/10/11 04:50:33;;;;;;;;;;;;;;;7.13;82.49;101838.52;1985066;72;20392;-61
2021/10/11 04:53:01;;;;;;;;;;;;;;;7.17;82.58;101834.13;1985092;72;20102;-60
2021/10/11 04:55:29;;;;;;;;;;;;;;;7.20;82.69;101836.30;1985086;72;20110;-61
2021/10/11 04:57:58;;;;;;;;;;;;;;;7.26;82.59;101839.30;1985028;72;20118;-61
2021/10/11 05:00:26;;;;;;;;;;;;;;;7.34;82.49;101848.85;1985102;72;20133;-60
2021/10/11 05:02:54;;;;;;;;;;;;;;;7.39;82.31;101844.01;1985091;72;20114;-61
2021/10/11 05:05:22;;;;;;;;;;;;;;;7.41;82.38;101842.23;1985071;72;20230;-60
2021/10/11 05:07:49;;;;;;;;;;;;;;;7.45;82.28;101840.02;1985107;72;20114;-61
2021/10/11 05:10:17;;;;;;;;;;;;;;;7.48;82.25;101844.80;1985059;72;20114;-61
2021/10/11 05:12:45;;;;;;;;;;;;;;;7.52;82.28;101846.95;1984855;72;20106;-60
2021/10/11 05:15:13;;;;;;;;;;;;;;;7.55;82.29;101846.93;1985148;72;20145;-61
2021/10/11 05:17:41;;;;;;;;;;;;;;;7.60;82.14;101848.19;1985083;72;20126;-60
2021/10/11 05:20:09;;;;;;;;;;;;;;;7.67;82.05;101853.80;1985083;72;20145;-60
2021/10/11 05:22:38;;;;;;;;;;;;;;;7.69;82.19;101852.92;1985079;72;20152;-61
2021/10/11 05:25:07;;;;;;;;;;;;;;;7.70;82.48;101852.02;1983572;72;20110;-61
2021/10/11 05:27:34;;;;;;;;;;;;;;;7.73;82.38;101850.70;1985059;72;20152;-61
2021/10/11 05:30:03;;;;;;;;;;;;;;;7.78;82.25;101849.77;1985045;72;20157;-61
2021/10/11 05:32:33;;;;;;;;;;;;;;;7.83;82.13;101854.54;1985187;72;20145;-60
2021/10/11 05:35:01;;;;;;;;;;;;;;;7.91;82.03;101860.56;1984993;72;20381;-61
2021/10/11 05:37:29;;;;;;;;;;;;;;;7.98;81.90;101857.45;1984997;72;20152;-61
2021/10/11 05:39:57;;;;;;;;;;;;;;;8.07;81.79;101853.41;1985032;72;20177;-61
2021/10/11 05:42:24;;;;;;;;;;;;;;;8.19;81.64;101853.71;1985042;72;20106;-60
2021/10/11 05:44:52;;;;;;;;;;;;;;;8.26;81.56;101847.09;1985035;72;20173;-60
2021/10/11 05:47:20;;;;;;;;;;;;;;;8.34;81.37;101838.23;1985065;72;20110;-61
2021/10/11 05:49:48;;;;;;;;;;;;;;;8.42;81.20;101837.28;1985059;72;20102;-60
2021/10/11 05:52:15;;;;;;;;;;;;;;;8.53;81.00;101844.17;1984939;72;20140;-61
2021/10/11 05:54:43;;;;;;;;;;;;;;;8.64;80.93;101847.06;1984977;72;20140;-61
2021/10/11 05:57:11;;;;;;;;;;;;;;;8.73;80.84;101846.09;1985097;72;20110;-61
2021/10/11 05:59:39;;;;;;;;;;;;;;;8.76;80.76;101840.80;1984972;72;20145;-61
2021/10/11 06:02:07;;;;;;;;;;;;;;;8.81;80.64;101842.89;1984987;72;20106;-61
2021/10/11 06:04:35;;;;;;;;;;;;;;;8.85;80.51;101838.05;1984972;72;20114;-61
2021/10/11 06:07:03;;;;;;;;;;;;;;;8.96;80.43;101843.57;1984928;72;20211;-60
2021/10/11 06:09:31;;;;;;;;;;;;;;;9.04;80.35;101839.09;1984950;72;20152;-61
2021/10/11 06:11:59;;;;;;;;;;;;;;;9.10;80.34;101840.30;1985003;72;20098;-61
2021/10/11 06:14:27;;;;;;;;;;;;;;;9.14;80.35;101840.66;1988998;72;20122;-61
2021/10/11 06:16:55;;;;;;;;;;;;;;;9.26;80.25;101832.59;1991466;72;20144;-61
2021/10/11 06:19:23;;;;;;;;;;;;;;;9.48;80.25;101834.88;1991397;72;20192;-60
2021/10/11 06:21:50;;;;;;;;;;;;;;;9.71;80.04;101845.44;1991517;72;20110;-60
2021/10/11 06:24:18;;;;;;;;;;;;;;;9.79;79.87;101847.47;1991482;71;20102;-61
2021/10/11 06:26:46;;;;;;;;;;;;;;;9.89;79.62;101841.16;1991532;72;20136;-61
2021/10/11 06:29:14;;;;;;;;;;;;;;;10.01;79.47;101842.26;1991511;72;20153;-61
2021/10/11 06:31:42;;;;;;;;;;;;;;;10.23;79.35;101843.98;1991526;72;20141;-61
2021/10/11 06:34:10;;;;;;;;;;;;;;;10.59;79.00;101838.91;1991443;72;20155;-61
2021/10/11 06:36:38;;;;;;;;;;;;;;;11.10;78.66;101840.42;1991492;72;20133;-61
2021/10/11 06:39:26;;;;;;;;;;;;;;;11.72;78.18;101831.81;1931075;74;20154;-60
2021/10/11 06:41:54;;;;;;;;;;;;;;;12.26;77.52;101826.87;1931008;74;20148;-61
2021/10/11 06:44:22;;;;;;;;;;;;;;;12.80;76.48;101827.90;1930912;74;20116;-61
2021/10/11 06:46:50;;;;;;;;;;;;;;;13.20;75.41;101830.61;1931019;74;20141;-61
2021/10/11 06:49:18;;;;;;;;;;;;;;;13.70;74.21;101828.06;1931019;74;20118;-61
2021/10/11 06:51:46;;;;;;;;;;;;;;;14.36;73.80;101819.53;1930908;74;20098;-61
2021/10/11 06:54:14;;;;;;;;;;;;;;;15.43;72.23;101813.93;1930862;74;20148;-61
2021/10/11 06:56:42;;;;;;;;;;;;;;;16.12;70.62;101816.75;1930896;74;20118;-61
2021/10/11 06:59:09;;;;;;;;;;;;;;;16.53;70.66;101809.13;1930864;74;20114;-60
2021/10/11 07:01:37;;;;;;;;;;;;;;;16.96;70.35;101809.27;1930938;74;20114;-61
2021/10/11 07:04:05;;;;;;;;;;;;;;;17.45;69.12;101801.12;1931025;74;20118;-60
2021/10/11 07:06:33;;;;;;;;;;;;;;;18.12;68.61;101811.39;1930898;74;20140;-61
2021/10/11 07:09:01;;;;;;;;;;;;;;;18.93;65.80;101799.38;1930892;74;20160;-60
2021/10/11 07:11:28;;;;;;;;;;;;;;;19.23;64.42;101795.39;1930811;74;20140;-61
2021/10/11 07:13:56;;;;;;;;;;;;;;;19.06;64.41;101797.72;1930870;74;20106;-61
2021/10/11 07:16:24;;;;;;;;;;;;;;;19.14;64.60;101798.59;1930959;74;20101;-60
2021/10/11 07:18:52;;;;;;;;;;;;;;;18.85;63.59;101801.16;1930899;74;20118;-60
2021/10/11 07:21:20;;;;;;;;;;;;;;;18.36;63.91;101804.34;1930996;74;20118;-60
2021/10/11 07:23:48;;;;;;;;;;;;;;;18.07;63.39;101808.97;1930888;74;20141;-61
2021/10/11 07:26:15;;;;;;;;;;;;;;;17.79;62.73;101802.03;1930917;74;20247;-61
2021/10/11 07:28:43;;;;;;;;;;;;;;;17.53;63.19;101804.24;1931096;74;20137;-61
2021/10/11 07:31:11;;;;;;;;;;;;;;;17.12;62.12;101800.55;1930870;74;20157;-60
2021/10/11 07:33:39;;;;;;;;;;;;;;;16.73;62.95;101792.23;1930889;74;20149;-61
2021/10/11 07:36:06;;;;;;;;;;;;;;;16.32;62.95;101797.23;1930984;74;20157;-61
2021/10/11 07:38:34;;;;;;;;;;;;;;;15.73;64.06;101801.62;1918529;74;20127;-62
2021/10/11 07:41:02;;;;;;;;;;;;;;;15.32;65.08;101790.97;1905201;75;20106;-61
2021/10/11 07:43:30;;;;;;;;;;;;;;;15.00;65.73;101795.83;1905210;75;20149;-61
2021/10/11 07:46:03;;;;;;;;;;;;;;;15.02;65.81;101797.95;1905221;75;20114;-62
2021/10/11 07:48:27;;;;;;;;;;;;;;;15.53;65.23;101787.88;1904818;75;20119;-61
2021/10/11 07:50:55;;;;;;;;;;;;;;;15.71;65.07;101788.85;1905230;75;20145;-61
2021/10/11 07:53:23;;;;;;;;;;;;;;;15.83;64.59;101784.84;1905184;75;20317;-61
2021/10/11 07:55:51;;;;;;;;;;;;;;;16.54;63.63;101790.45;1905187;75;20229;-61
2021/10/11 07:58:19;;;;;;;;;;;;;;;17.88;61.68;101794.92;1905245;75;20119;-61
2021/10/11 08:00:46;;;;;;;;;;;;;;;18.93;59.39;101787.38;1905212;75;20115;-61
2021/10/11 08:03:14;;;;;;;;;;;;;;;19.66;57.82;101772.80;1905239;75;20118;-61
2021/10/11 08:05:42;;;;;;;;;;;;;;;20.29;56.53;101772.06;1905147;75;20119;-62
2021/10/11 08:08:10;;;;;;;;;;;;;;;20.96;56.23;101773.52;1905202;75;20115;-61
2021/10/11 08:10:37;;;;;;;;;;;;;;;21.30;53.83;101761.01;1905196;75;20149;-61
2021/10/11 08:13:06;;;;;;;;;;;;;;;21.70;53.37;101763.66;1905304;75;20149;-61
2021/10/11 08:15:33;;;;;;;;;;;;;;;22.18;53.43;101761.13;1905152;75;20099;-61
2021/10/11 08:18:01;;;;;;;;;;;;;;;22.43;52.96;101759.37;1905183;75;20122;-61
2021/10/11 08:20:29;;;;;;;;;;;;;;;22.73;51.83;101761.15;1905130;75;20103;-61
2021/10/11 08:22:57;;;;;;;;;;;;;;;22.24;52.27;101764.70;1905192;75;20103;-61
2021/10/11 08:25:27;;;;;;;;;;;;;;;22.25;50.25;101757.05;1905201;75;20141;-61
2021/10/11 08:28:13;;;;;;;;;;;;;;;22.17;50.18;101752.23;1861940;77;20423;-60
2021/10/11 08:30:42;;;;;;;;;;;;;;;22.42;49.54;101750.97;1862015;77;20118;-62
2021/10/11 08:33:10;;;;;;;;;;;;;;;22.56;48.84;101753.50;1861992;77;20389;-60
2021/10/11 08:35:38;;;;;;;;;;;;;;;22.12;50.30;101753.54;1862018;77;20189;-61
2021/10/11 08:38:06;;;;;;;;;;;;;;;21.87;50.66;101754.42;1862022;77;20420;-62
2021/10/11 08:40:34;;;;;;;;;;;;;;;22.00;50.15;101742.34;1862024;77;20122;-61
2021/10/11 08:43:02;;;;;;;;;;;;;;;21.98;50.29;101739.30;1861991;77;20161;-61
2021/10/11 08:45:30;;;;;;;;;;;;;;;21.54;50.09;101741.08;1861843;77;20205;-61
2021/10/11 08:47:58;;;;;;;;;;;;;;;21.71;50.21;101742.11;1861955;77;20126;-61
2021/10/11 08:50:26;;;;;;;;;;;;;;;22.51;49.48;101742.24;1861992;77;20146;-62
2021/10/11 08:52:54;;;;;;;;;;;;;;;23.21;48.69;101736.09;1861973;77;20160;-62
2021/10/11 08:55:22;;;;;;;;;;;;;;;23.65;48.00;101737.16;1862082;77;20102;-61
2021/10/11 08:57:52;;;;;;;;;;;;;;;23.69;47.42;101735.08;1861872;77;20133;-61
2021/10/11 09:00:20;;;;;;;;;;;;;;;23.60;47.07;101729.09;1860896;77;20165;-61
2021/10/11 09:02:55;;;;;;;;;;;;;;;23.74;47.06;101718.10;1861991;77;20173;-61
2021/10/11 09:05:32;;;;;;;;;;;;;;;23.78;46.67;101715.53;1862007;77;20118;-61
2021/10/11 09:08:01;;;;;;;;;;;;;;;24.08;46.19;101715.42;1861118;77;20122;-61
2021/10/11 09:10:28;;;;;;;;;;;;;;;24.34;45.84;101713.78;1861952;77;20388;-62
2021/10/11 09:12:56;;;;;;;;;;;;;;;24.41;44.45;101707.77;1862002;77;20111;-62
2021/10/11 09:15:28;;;;;;;;;;;;;;;24.23;43.84;101702.05;1862023;77;20432;-62
2021/10/11 09:18:05;;;;;;;;;;;;;;;24.35;44.89;101695.32;1862108;77;20115;-61
2021/10/11 09:20:29;;;;;;;;;;;;;;;24.34;43.90;101698.98;1860662;77;20443;-61
2021/10/11 09:22:58;;;;;;;;;;;;;;;24.38;44.08;101699.08;1862119;77;20400;-61
2021/10/11 09:25:41;;;;;;;;;;;;;;;24.54;44.68;101696.02;1862054;77;20411;-61
2021/10/11 09:28:09;;;;;;;;;;;;;;;24.82;44.44;101695.89;1861900;77;20150;-61
2021/10/11 09:30:39;;;;;;;;;;;;;;;24.78;43.85;101690.41;1861982;77;20153;-61
2021/10/11 09:33:08;;;;;;;;;;;;;;;24.97;44.25;101697.30;1861984;77;20106;-62
2021/10/11 09:35:36;;;;;;;;;;;;;;;25.09;43.63;101693.20;1861927;77;20153;-61
2021/10/11 09:38:05;;;;;;;;;;;;;;;25.19;43.56;101692.25;1861956;77;20119;-61
2021/10/11 09:40:41;;;;;;;;;;;;;;;24.97;42.69;101684.30;1862010;77;20119;-61
2021/10/11 09:43:13;;;;;;;;;;;;;;;23.91;44.59;101676.94;1861990;77;20153;-62
2021/10/11 09:45:41;;;;;;;;;;;;;;;23.75;45.26;101677.27;1861891;77;20175;-62
2021/10/11 09:48:09;;;;;;;;;;;;;;;24.26;44.73;101673.55;1861956;77;20776;-61
2021/10/11 09:50:38;;;;;;;;;;;;;;;24.52;44.55;101679.98;1861966;77;20157;-61
2021/10/11 09:53:06;;;;;;;;;;;;;;;24.39;45.04;101672.05;1862002;77;20118;-61
2021/10/11 09:55:34;;;;;;;;;;;;;;;24.02;45.45;101676.42;1861927;77;20122;-61
2021/10/11 09:58:02;;;;;;;;;;;;;;;23.48;46.12;101669.95;1861960;77;20106;-61
2021/10/11 10:00:30;;;;;;;;;;;;;;;23.37;46.87;101665.91;1861908;77;20122;-61
2021/10/11 10:02:58;;;;;;;;;;;;;;;24.01;46.30;101661.74;1861973;77;20284;-61
2021/10/11 10:05:27;;;;;;;;;;;;;;;24.70;45.20;101662.78;1861950;77;20149;-61
2021/10/11 10:07:56;;;;;;;;;;;;;;;24.50;44.07;101657.70;1861968;77;20119;-61
2021/10/11 10:10:25;;;;;;;;;;;;;;;23.75;45.62;101655.27;1861947;77;20122;-62
2021/10/11 10:12:53;;;;;;;;;;;;;;;23.82;45.89;101652.48;1861864;77;20119;-62
2021/10/11 10:15:28;;;;;;;;;;;;;;;24.04;45.90;101646.70;1861928;77;20122;-62
2021/10/11 10:18:01;;;;;;;;;;;;;;;23.62;46.57;101643.79;1861937;77;20150;-62
2021/10/11 10:20:29;;;;;;;;;;;;;;;23.82;46.26;101641.72;1861711;77;20122;-61
2021/10/11 10:22:57;;;;;;;;;;;;;;;23.89;46.26;101642.09;1861916;77;20149;-61
2021/10/11 10:25:26;;;;;;;;;;;;;;;23.98;46.27;101639.15;1861849;77;20153;-61
2021/10/11 10:27:54;;;;;;;;;;;;;;;23.30;46.90;101644.53;1860777;77;20215;-61
2021/10/11 10:30:24;;;;;;;;;;;;;;;22.74;47.80;101632.67;1859535;77;20126;-61
2021/10/11 10:32:53;;;;;;;;;;;;;;;22.65;48.23;101634.71;1859567;77;20341;-61
2021/10/11 10:35:21;;;;;;;;;;;;;;;22.89;47.98;101628.44;1859532;77;20486;-61
2021/10/11 10:37:49;;;;;;;;;;;;;;;22.46;48.62;101626.33;1859564;77;20166;-61
2021/10/11 10:40:18;;;;;;;;;;;;;;;22.01;49.39;101630.11;1859495;77;20189;-61
2021/10/11 10:42:46;;;;;;;;;;;;;;;21.86;49.98;101631.59;1859530;77;20498;-61
2021/10/11 10:45:16;;;;;;;;;;;;;;;21.81;50.34;101623.02;1859529;77;20126;-61
2021/10/11 10:47:44;;;;;;;;;;;;;;;21.86;50.27;101615.50;1859150;77;20118;-61
2021/10/11 10:50:18;;;;;;;;;;;;;;;22.02;50.31;101623.75;1859520;77;20118;-61
2021/10/11 10:52:54;;;;;;;;;;;;;;;21.66;50.77;101624.14;1859532;77;20244;-61
2021/10/11 10:55:22;;;;;;;;;;;;;;;21.09;51.73;101626.28;1859480;77;20118;-62
2021/10/11 10:57:51;;;;;;;;;;;;;;;20.77;52.51;101622.67;1859548;77;20123;-61
2021/10/11 11:00:20;;;;;;;;;;;;;;;20.60;53.09;101618.89;1859567;77;20161;-62
2021/10/11 11:02:50;;;;;;;;;;;;;;;20.37;53.53;101622.64;1859518;77;20145;-62
2021/10/11 11:05:19;;;;;;;;;;;;;;;20.34;53.89;101610.80;1859502;77;20123;-62
2021/10/11 11:07:49;;;;;;;;;;;;;;;20.32;54.16;101615.88;1859526;77;20365;-62
2021/10/11 11:10:18;;;;;;;;;;;;;;;20.11;54.36;101614.16;1859604;77;20381;-62
2021/10/11 11:12:47;;;;;;;;;;;;;;;19.89;54.72;101606.19;1859774;77;20119;-62
2021/10/11 11:15:28;;;;;;;;;;;;;;;19.83;55.00;101609.27;1859119;77;20151;-62
2021/10/11 11:17:57;;;;;;;;;;;;;;;19.88;55.15;101612.48;1859628;77;20416;-61
2021/10/11 11:20:27;;;;;;;;;;;;;;;19.85;55.28;101606.86;1858818;77;20107;-62
2021/10/11 11:22:56;;;;;;;;;;;;;;;19.79;55.42;101606.39;1858609;77;20122;-62
2021/10/11 11:25:28;;;;;;;;;;;;;;;19.76;55.57;101603.45;1859616;77;20120;-62
2021/10/11 11:27:57;;;;;;;;;;;;;;;19.63;55.78;101604.67;1859516;77;20364;-62
2021/10/11 11:30:25;;;;;;;;;;;;;;;19.46;56.07;101600.41;1859612;77;20193;-62
2021/10/11 11:32:54;;;;;;;;;;;;;;;19.29;56.49;101597.46;1859604;77;20122;-62
2021/10/11 11:35:23;;;;;;;;;;;;;;;19.10;56.86;101595.53;1859603;77;20451;-62
2021/10/11 11:37:53;;;;;;;;;;;;;;;19.00;57.10;101591.73;1859622;77;20145;-62
2021/10/11 11:40:22;;;;;;;;;;;;;;;18.95;57.52;101597.81;1859604;77;20131;-62
2021/10/11 11:42:53;;;;;;;;;;;;;;;18.82;57.64;101594.54;1859607;77;20399;-62
2021/10/11 11:45:20;;;;;;;;;;;;;;;18.74;57.81;101599.46;1859104;77;20204;-62
2021/10/11 11:47:49;;;;;;;;;;;;;;;18.73;57.98;101589.73;1859602;77;20118;-62
2021/10/11 11:50:24;;;;;;;;;;;;;;;18.80;58.07;101582.22;1859622;77;20179;-62
2021/10/11 11:53:02;;;;;;;;;;;;;;;18.97;57.84;101583.90;1859634;77;20145;-62
2021/10/11 11:55:30;;;;;;;;;;;;;;;19.11;57.52;101581.25;1859507;77;20380;-62
2021/10/11 11:57:58;;;;;;;;;;;;;;;19.22;57.40;101583.26;1859592;77;20115;-62
2021/10/11 12:00:30;;;;;;;;;;;;;;;19.23;57.15;101577.80;1859620;77;20114;-61
2021/10/11 12:02:57;;;;;;;;;;;;;;;19.13;57.14;101576.66;1859511;77;20151;-62
2021/10/11 12:05:25;;;;;;;;;;;;;;;19.14;57.23;101574.36;1859488;77;20147;-63
2021/10/11 12:07:55;;;;;;;;;;;;;;;19.26;57.25;101574.95;1859574;77;20193;-62
2021/10/11 12:10:24;;;;;;;;;;;;;;;19.30;57.26;101575.61;1859583;77;20152;-62
2021/10/11 12:12:59;;;;;;;;;;;;;;;19.24;57.29;101568.84;1859722;77;20107;-61
2021/10/11 12:15:28;;;;;;;;;;;;;;;19.18;57.52;101571.91;1858684;77;20123;-62
2021/10/11 12:18:03;;;;;;;;;;;;;;;19.06;57.64;101570.84;1859524;77;20159;-62
2021/10/11 12:20:44;;;;;;;;;;;;;;;18.94;57.85;101569.39;1858839;77;20447;-62
2021/10/11 12:23:13;;;;;;;;;;;;;;;18.84;58.22;101565.95;1859589;77;20106;-61
2021/10/11 12:25:43;;;;;;;;;;;;;;;18.78;58.47;101557.45;1975775;72;20118;-59
2021/10/11 12:28:15;;;;;;;;;;;;;;;18.75;58.62;101554.47;1988594;72;20144;-59
2021/10/11 12:30:43;;;;;;;;;;;;;;;18.71;58.74;101562.28;1988494;72;20144;-60
2021/10/11 12:33:13;;;;;;;;;;;;;;;18.69;58.88;101561.52;1988626;72;20106;-59
2021/10/11 12:35:42;;;;;;;;;;;;;;;18.64;59.04;101562.27;1988609;72;20402;-61
2021/10/11 12:38:11;;;;;;;;;;;;;;;18.62;59.17;101561.51;1988772;72;20357;-61
2021/10/11 12:40:39;;;;;;;;;;;;;;;18.60;59.33;101562.92;1988599;72;20410;-61
2021/10/11 12:43:15;;;;;;;;;;;;;;;18.60;59.43;101562.92;1988505;72;20144;-62
2021/10/11 12:45:44;;;;;;;;;;;;;;;18.62;59.50;101568.17;1988615;72;20397;-61
2021/10/11 12:48:12;;;;;;;;;;;;;;;18.61;59.75;101564.66;1988592;72;20111;-61
2021/10/11 12:50:41;;;;;;;;;;;;;;;18.61;59.54;101561.11;1988599;72;20107;-62